KICT/ICT METAR and TAF weather

Enter ICAO airport designator
Station Type Date Time Source
KICT METAR 2021/03/08 11:53 UTC NOAA

KICT 081153Z 17011KT 10SM SCT250 07/M01 A3026 RMK AO2 SLP246 T00671011 10100 20050 55001 $


Station Type Date Time Source
KICT Decoded METAR 2021/03/08 11:53 UTC NOAA

WICHITA MID-CONTINENT AIRPORT , KS, United States (KICT) 37-39N 97-26W 408M
Mar 08, 2021 - 06:53 AM EST / 2021.03.08 1153 UTC
Wind: from the S (170 degrees) at 13 MPH (11 KT):0
Visibility: 10 mile(s):0
Sky conditions: partly cloudy
Temperature: 44.1 F (6.7 C)
Dew Point: 30.0 F (-1.1 C)
Relative Humidity: 57%
Pressure (altimeter): 30.26 in. Hg (1024 hPa)
Pressure tendency: 0.00 inches (0.1 hPa) lower than three hours ago
ob: KICT 081153Z 17011KT 10SM SCT250 07/M01 A3026 RMK AO2 SLP246 T00671011 10100 20050 55001
cycle: 12

Station Type Date Time Source
KICT TAF 2021/03/08 12:45 UTC NOAA

TAF KICT 081143Z 0812/0912 18012KT P6SM SKC WS020/21040KT
FM081400 18014KT P6SM FEW250
FM081500 18015G23KT P6SM FEW250
FM081900 19019G27KT P6SM FEW250
FM090500 17020G28KT P6SM BKN180
FM090600 17020G28KT P6SM BKN180 WS020/19050KT

Example: see airport list